sensor_id;sensor_type;location;lat;lon;timestamp;P1;durP1;ratioP1;P2;durP2;ratioP2
19179;SDS011;9722;48.754;8.868;2023-08-21T00:02:52;6.00;;;5.50;;
19179;SDS011;9722;48.754;8.868;2023-08-21T00:06:13;5.97;;;5.40;;
19179;SDS011;9722;48.754;8.868;2023-08-21T00:09:33;6.27;;;5.57;;
19179;SDS011;9722;48.754;8.868;2023-08-21T00:12:54;6.70;;;5.20;;
19179;SDS011;9722;48.754;8.868;2023-08-21T00:16:14;5.67;;;5.17;;
19179;SDS011;9722;48.754;8.868;2023-08-21T00:19:36;5.40;;;5.00;;
19179;SDS011;9722;48.754;8.868;2023-08-21T00:22:57;5.33;;;4.90;;
19179;SDS011;9722;48.754;8.868;2023-08-21T00:26:17;6.50;;;5.67;;
19179;SDS011;9722;48.754;8.868;2023-08-21T00:29:38;6.07;;;5.57;;
19179;SDS011;9722;48.754;8.868;2023-08-21T00:32:58;5.97;;;5.40;;
19179;SDS011;9722;48.754;8.868;2023-08-21T00:36:19;5.80;;;5.23;;
19179;SDS011;9722;48.754;8.868;2023-08-21T00:39:40;6.50;;;5.33;;
19179;SDS011;9722;48.754;8.868;2023-08-21T00:43:00;5.80;;;5.30;;
19179;SDS011;9722;48.754;8.868;2023-08-21T00:46:21;6.00;;;5.60;;
19179;SDS011;9722;48.754;8.868;2023-08-21T00:49:42;5.77;;;5.37;;
19179;SDS011;9722;48.754;8.868;2023-08-21T00:53:03;5.40;;;5.00;;
19179;SDS011;9722;48.754;8.868;2023-08-21T00:56:24;5.47;;;5.07;;
19179;SDS011;9722;48.754;8.868;2023-08-21T00:59:45;5.97;;;5.47;;
19179;SDS011;9722;48.754;8.868;2023-08-21T01:03:06;5.57;;;5.17;;
19179;SDS011;9722;48.754;8.868;2023-08-21T01:06:27;5.83;;;5.43;;
19179;SDS011;9722;48.754;8.868;2023-08-21T01:09:49;5.80;;;5.40;;
19179;SDS011;9722;48.754;8.868;2023-08-21T01:13:19;5.60;;;5.20;;
19179;SDS011;9722;48.754;8.868;2023-08-21T01:16:42;6.57;;;5.40;;
19179;SDS011;9722;48.754;8.868;2023-08-21T01:20:06;5.60;;;5.20;;
19179;SDS011;9722;48.754;8.868;2023-08-21T01:23:32;5.07;;;4.77;;
19179;SDS011;9722;48.754;8.868;2023-08-21T01:26:54;5.60;;;5.27;;
19179;SDS011;9722;48.754;8.868;2023-08-21T01:30:14;5.90;;;5.40;;
19179;SDS011;9722;48.754;8.868;2023-08-21T01:33:37;6.03;;;5.53;;
19179;SDS011;9722;48.754;8.868;2023-08-21T01:37:05;5.73;;;5.33;;
19179;SDS011;9722;48.754;8.868;2023-08-21T01:40:27;6.33;;;5.93;;
19179;SDS011;9722;48.754;8.868;2023-08-21T01:43:48;5.93;;;5.53;;
19179;SDS011;9722;48.754;8.868;2023-08-21T01:47:08;6.20;;;5.70;;
19179;SDS011;9722;48.754;8.868;2023-08-21T01:50:29;6.20;;;5.70;;
19179;SDS011;9722;48.754;8.868;2023-08-21T01:53:49;5.97;;;5.37;;
19179;SDS011;9722;48.754;8.868;2023-08-21T01:57:10;6.00;;;5.50;;
19179;SDS011;9722;48.754;8.868;2023-08-21T02:00:30;5.77;;;5.33;;
19179;SDS011;9722;48.754;8.868;2023-08-21T02:03:51;5.57;;;5.17;;
19179;SDS011;9722;48.754;8.868;2023-08-21T02:07:11;5.80;;;5.40;;
19179;SDS011;9722;48.754;8.868;2023-08-21T02:10:32;5.90;;;5.33;;
19179;SDS011;9722;48.754;8.868;2023-08-21T02:13:52;6.40;;;5.90;;
19179;SDS011;9722;48.754;8.868;2023-08-21T02:17:13;6.40;;;5.90;;
19179;SDS011;9722;48.754;8.868;2023-08-21T02:20:34;6.60;;;6.10;;
19179;SDS011;9722;48.754;8.868;2023-08-21T02:23:54;6.77;;;6.17;;
19179;SDS011;9722;48.754;8.868;2023-08-21T02:27:15;7.00;;;6.50;;
19179;SDS011;9722;48.754;8.868;2023-08-21T02:30:35;6.53;;;6.03;;
19179;SDS011;9722;48.754;8.868;2023-08-21T02:33:59;6.70;;;6.13;;
19179;SDS011;9722;48.754;8.868;2023-08-21T02:37:19;6.87;;;6.27;;
19179;SDS011;9722;48.754;8.868;2023-08-21T02:40:40;7.57;;;6.53;;
19179;SDS011;9722;48.754;8.868;2023-08-21T02:44:00;7.77;;;6.30;;
19179;SDS011;9722;48.754;8.868;2023-08-21T02:47:21;6.03;;;5.53;;
19179;SDS011;9722;48.754;8.868;2023-08-21T02:50:41;6.63;;;6.13;;
19179;SDS011;9722;48.754;8.868;2023-08-21T02:54:02;6.47;;;6.07;;
19179;SDS011;9722;48.754;8.868;2023-08-21T02:57:23;6.70;;;6.10;;
19179;SDS011;9722;48.754;8.868;2023-08-21T03:00:44;6.37;;;5.90;;
19179;SDS011;9722;48.754;8.868;2023-08-21T03:04:05;6.30;;;5.80;;
19179;SDS011;9722;48.754;8.868;2023-08-21T03:07:25;7.33;;;6.70;;
19179;SDS011;9722;48.754;8.868;2023-08-21T03:10:46;6.87;;;5.50;;
19179;SDS011;9722;48.754;8.868;2023-08-21T03:14:06;6.60;;;6.10;;
19179;SDS011;9722;48.754;8.868;2023-08-21T03:17:27;7.00;;;6.40;;
19179;SDS011;9722;48.754;8.868;2023-08-21T03:20:48;6.67;;;6.07;;
19179;SDS011;9722;48.754;8.868;2023-08-21T03:24:08;7.37;;;6.33;;
19179;SDS011;9722;48.754;8.868;2023-08-21T03:27:29;6.70;;;6.20;;
19179;SDS011;9722;48.754;8.868;2023-08-21T03:30:49;6.87;;;6.17;;
19179;SDS011;9722;48.754;8.868;2023-08-21T03:34:12;6.57;;;5.97;;
19179;SDS011;9722;48.754;8.868;2023-08-21T03:37:33;6.60;;;6.03;;
19179;SDS011;9722;48.754;8.868;2023-08-21T03:40:53;6.00;;;5.50;;
19179;SDS011;9722;48.754;8.868;2023-08-21T03:44:14;6.80;;;6.30;;
19179;SDS011;9722;48.754;8.868;2023-08-21T03:47:34;7.53;;;6.80;;
19179;SDS011;9722;48.754;8.868;2023-08-21T03:50:55;7.77;;;7.07;;
19179;SDS011;9722;48.754;8.868;2023-08-21T03:54:15;6.97;;;6.40;;
19179;SDS011;9722;48.754;8.868;2023-08-21T03:57:36;6.40;;;5.93;;
19179;SDS011;9722;48.754;8.868;2023-08-21T04:00:56;7.17;;;6.47;;
19179;SDS011;9722;48.754;8.868;2023-08-21T04:04:17;6.93;;;6.33;;
19179;SDS011;9722;48.754;8.868;2023-08-21T04:07:37;7.13;;;6.43;;
19179;SDS011;9722;48.754;8.868;2023-08-21T04:10:58;6.13;;;5.73;;
19179;SDS011;9722;48.754;8.868;2023-08-21T04:14:20;6.13;;;5.63;;
19179;SDS011;9722;48.754;8.868;2023-08-21T04:17:40;6.70;;;6.30;;
19179;SDS011;9722;48.754;8.868;2023-08-21T04:21:01;6.17;;;5.77;;
19179;SDS011;9722;48.754;8.868;2023-08-21T04:24:21;6.53;;;6.03;;
19179;SDS011;9722;48.754;8.868;2023-08-21T04:27:42;7.40;;;6.80;;
19179;SDS011;9722;48.754;8.868;2023-08-21T04:31:05;7.33;;;6.73;;
19179;SDS011;9722;48.754;8.868;2023-08-21T04:34:26;7.73;;;7.03;;
19179;SDS011;9722;48.754;8.868;2023-08-21T04:37:47;7.20;;;6.63;;
19179;SDS011;9722;48.754;8.868;2023-08-21T04:41:08;7.10;;;6.60;;
19179;SDS011;9722;48.754;8.868;2023-08-21T04:44:30;6.77;;;6.20;;
19179;SDS011;9722;48.754;8.868;2023-08-21T04:47:50;7.30;;;6.80;;
19179;SDS011;9722;48.754;8.868;2023-08-21T04:51:11;7.80;;;7.10;;
19179;SDS011;9722;48.754;8.868;2023-08-21T04:54:31;7.13;;;6.53;;
19179;SDS011;9722;48.754;8.868;2023-08-21T04:57:52;6.80;;;6.27;;
19179;SDS011;9722;48.754;8.868;2023-08-21T05:01:12;7.00;;;6.47;;
19179;SDS011;9722;48.754;8.868;2023-08-21T05:04:33;7.27;;;6.63;;
19179;SDS011;9722;48.754;8.868;2023-08-21T05:07:55;7.07;;;6.53;;
19179;SDS011;9722;48.754;8.868;2023-08-21T05:11:16;7.90;;;7.30;;
19179;SDS011;9722;48.754;8.868;2023-08-21T05:14:36;7.80;;;6.63;;
19179;SDS011;9722;48.754;8.868;2023-08-21T05:17:57;6.50;;;6.00;;
19179;SDS011;9722;48.754;8.868;2023-08-21T05:21:17;6.53;;;5.93;;
19179;SDS011;9722;48.754;8.868;2023-08-21T05:24:38;6.87;;;6.37;;
19179;SDS011;9722;48.754;8.868;2023-08-21T05:27:58;6.97;;;6.57;;
19179;SDS011;9722;48.754;8.868;2023-08-21T05:31:19;6.40;;;5.90;;
19179;SDS011;9722;48.754;8.868;2023-08-21T05:34:39;6.40;;;5.90;;
19179;SDS011;9722;48.754;8.868;2023-08-21T05:38:00;7.17;;;5.83;;
19179;SDS011;9722;48.754;8.868;2023-08-21T05:41:20;6.33;;;5.83;;
19179;SDS011;9722;48.754;8.868;2023-08-21T05:44:41;6.40;;;5.77;;
19179;SDS011;9722;48.754;8.868;2023-08-21T05:48:01;6.27;;;5.77;;
19179;SDS011;9722;48.754;8.868;2023-08-21T05:51:22;6.67;;;6.17;;
19179;SDS011;9722;48.754;8.868;2023-08-21T05:54:42;5.87;;;5.47;;
19179;SDS011;9722;48.754;8.868;2023-08-21T05:58:03;6.23;;;5.83;;
19179;SDS011;9722;48.754;8.868;2023-08-21T06:01:23;6.13;;;5.73;;
19179;SDS011;9722;48.754;8.868;2023-08-21T06:04:45;6.10;;;5.60;;
19179;SDS011;9722;48.754;8.868;2023-08-21T06:08:06;6.10;;;5.63;;
19179;SDS011;9722;48.754;8.868;2023-08-21T06:11:28;6.30;;;5.90;;
19179;SDS011;9722;48.754;8.868;2023-08-21T06:14:50;5.80;;;5.37;;
19179;SDS011;9722;48.754;8.868;2023-08-21T06:18:11;6.80;;;6.07;;
19179;SDS011;9722;48.754;8.868;2023-08-21T06:21:31;5.70;;;5.20;;
19179;SDS011;9722;48.754;8.868;2023-08-21T06:24:52;5.47;;;5.07;;
19179;SDS011;9722;48.754;8.868;2023-08-21T06:28:12;5.47;;;4.93;;
19179;SDS011;9722;48.754;8.868;2023-08-21T06:31:33;5.50;;;5.07;;
19179;SDS011;9722;48.754;8.868;2023-08-21T06:34:53;5.77;;;4.50;;
19179;SDS011;9722;48.754;8.868;2023-08-21T06:38:14;5.43;;;5.03;;
19179;SDS011;9722;48.754;8.868;2023-08-21T06:41:34;4.80;;;4.50;;
19179;SDS011;9722;48.754;8.868;2023-08-21T06:44:55;5.23;;;4.87;;
19179;SDS011;9722;48.754;8.868;2023-08-21T06:48:15;4.83;;;4.50;;
19179;SDS011;9722;48.754;8.868;2023-08-21T06:51:36;5.43;;;4.93;;
19179;SDS011;9722;48.754;8.868;2023-08-21T06:54:56;4.67;;;4.37;;
19179;SDS011;9722;48.754;8.868;2023-08-21T06:58:17;5.03;;;4.53;;
19179;SDS011;9722;48.754;8.868;2023-08-21T07:01:37;4.70;;;4.30;;
19179;SDS011;9722;48.754;8.868;2023-08-21T07:04:58;5.27;;;4.80;;
19179;SDS011;9722;48.754;8.868;2023-08-21T07:08:18;4.80;;;4.40;;
19179;SDS011;9722;48.754;8.868;2023-08-21T07:11:39;5.03;;;4.53;;
19179;SDS011;9722;48.754;8.868;2023-08-21T07:14:59;5.43;;;4.93;;
19179;SDS011;9722;48.754;8.868;2023-08-21T07:18:20;4.77;;;4.47;;
19179;SDS011;9722;48.754;8.868;2023-08-21T07:21:40;5.13;;;4.17;;
19179;SDS011;9722;48.754;8.868;2023-08-21T07:25:01;4.50;;;4.20;;
19179;SDS011;9722;48.754;8.868;2023-08-21T07:28:24;4.90;;;4.47;;
19179;SDS011;9722;48.754;8.868;2023-08-21T07:31:44;4.70;;;4.40;;
19179;SDS011;9722;48.754;8.868;2023-08-21T07:35:05;4.33;;;4.00;;
19179;SDS011;9722;48.754;8.868;2023-08-21T07:38:26;4.50;;;4.10;;
19179;SDS011;9722;48.754;8.868;2023-08-21T07:41:46;4.90;;;4.53;;
19179;SDS011;9722;48.754;8.868;2023-08-21T07:45:07;5.13;;;4.10;;
19179;SDS011;9722;48.754;8.868;2023-08-21T07:48:28;4.53;;;4.23;;
19179;SDS011;9722;48.754;8.868;2023-08-21T07:51:48;4.37;;;4.03;;
19179;SDS011;9722;48.754;8.868;2023-08-21T07:55:09;4.60;;;4.20;;
19179;SDS011;9722;48.754;8.868;2023-08-21T07:58:29;5.87;;;4.60;;
19179;SDS011;9722;48.754;8.868;2023-08-21T08:01:50;5.03;;;4.57;;
19179;SDS011;9722;48.754;8.868;2023-08-21T08:05:11;5.43;;;4.90;;
19179;SDS011;9722;48.754;8.868;2023-08-21T08:08:31;4.93;;;4.47;;
19179;SDS011;9722;48.754;8.868;2023-08-21T08:11:52;4.87;;;4.50;;
19179;SDS011;9722;48.754;8.868;2023-08-21T08:15:12;4.57;;;4.23;;
19179;SDS011;9722;48.754;8.868;2023-08-21T08:18:33;4.75;;;4.35;;
19179;SDS011;9722;48.754;8.868;2023-08-21T08:21:53;4.57;;;4.28;;
19179;SDS011;9722;48.754;8.868;2023-08-21T08:25:14;4.53;;;4.18;;
19179;SDS011;9722;48.754;8.868;2023-08-21T08:28:34;4.38;;;4.07;;
19179;SDS011;9722;48.754;8.868;2023-08-21T08:31:55;7.05;;;4.28;;
19179;SDS011;9722;48.754;8.868;2023-08-21T08:35:15;4.65;;;4.25;;
19179;SDS011;9722;48.754;8.868;2023-08-21T08:38:36;4.75;;;4.20;;
19179;SDS011;9722;48.754;8.868;2023-08-21T08:45:22;4.72;;;4.43;;
19179;SDS011;9722;48.754;8.868;2023-08-21T08:48:53;4.95;;;4.45;;
19179;SDS011;9722;48.754;8.868;2023-08-21T08:52:14;5.80;;;4.60;;
19179;SDS011;9722;48.754;8.868;2023-08-21T08:55:37;5.43;;;4.68;;
19179;SDS011;9722;48.754;8.868;2023-08-21T08:58:58;5.00;;;4.60;;
19179;SDS011;9722;48.754;8.868;2023-08-21T09:02:18;6.00;;;4.38;;
19179;SDS011;9722;48.754;8.868;2023-08-21T09:05:39;6.10;;;4.63;;
19179;SDS011;9722;48.754;8.868;2023-08-21T09:09:00;4.97;;;4.47;;
19179;SDS011;9722;48.754;8.868;2023-08-21T09:12:21;3.63;;;3.42;;
19179;SDS011;9722;48.754;8.868;2023-08-21T09:15:43;3.85;;;3.50;;
19179;SDS011;9722;48.754;8.868;2023-08-21T09:19:07;3.38;;;3.17;;
19179;SDS011;9722;48.754;8.868;2023-08-21T09:22:28;4.05;;;3.60;;
19179;SDS011;9722;48.754;8.868;2023-08-21T09:25:48;3.97;;;3.67;;
19179;SDS011;9722;48.754;8.868;2023-08-21T09:29:09;3.75;;;3.45;;
19179;SDS011;9722;48.754;8.868;2023-08-21T09:32:29;4.47;;;3.78;;
19179;SDS011;9722;48.754;8.868;2023-08-21T09:35:51;3.95;;;3.65;;
19179;SDS011;9722;48.754;8.868;2023-08-21T09:39:15;3.65;;;3.30;;
19179;SDS011;9722;48.754;8.868;2023-08-21T09:42:38;4.95;;;4.13;;
19179;SDS011;9722;48.754;8.868;2023-08-21T09:45:59;6.07;;;3.38;;
19179;SDS011;9722;48.754;8.868;2023-08-21T09:49:20;3.92;;;3.63;;
19179;SDS011;9722;48.754;8.868;2023-08-21T09:52:42;4.00;;;3.70;;
19179;SDS011;9722;48.754;8.868;2023-08-21T09:56:04;3.88;;;3.63;;
19179;SDS011;9722;48.754;8.868;2023-08-21T09:59:25;3.55;;;3.35;;
19179;SDS011;9722;48.754;8.868;2023-08-21T10:02:51;3.78;;;3.47;;
19179;SDS011;9722;48.754;8.868;2023-08-21T10:06:15;4.35;;;3.58;;
19179;SDS011;9722;48.754;8.868;2023-08-21T11:29:59;6.47;;;3.88;;
19179;SDS011;9722;48.754;8.868;2023-08-21T11:33:20;4.38;;;4.07;;
19179;SDS011;9722;48.754;8.868;2023-08-21T11:36:41;4.32;;;3.97;;
19179;SDS011;9722;48.754;8.868;2023-08-21T11:40:07;3.95;;;3.65;;
19179;SDS011;9722;48.754;8.868;2023-08-21T11:43:41;3.73;;;3.50;;
19179;SDS011;9722;48.754;8.868;2023-08-21T11:47:03;4.22;;;3.92;;
19179;SDS011;9722;48.754;8.868;2023-08-21T11:50:24;4.18;;;3.88;;
19179;SDS011;9722;48.754;8.868;2023-08-21T11:53:46;4.90;;;4.00;;
19179;SDS011;9722;48.754;8.868;2023-08-21T11:57:11;4.85;;;4.38;;
19179;SDS011;9722;48.754;8.868;2023-08-21T12:00:33;4.53;;;3.80;;
19179;SDS011;9722;48.754;8.868;2023-08-21T12:03:54;4.45;;;4.05;;
19179;SDS011;9722;48.754;8.868;2023-08-21T12:07:14;5.25;;;3.97;;
19179;SDS011;9722;48.754;8.868;2023-08-21T12:10:35;4.28;;;3.92;;
19179;SDS011;9722;48.754;8.868;2023-08-21T12:13:56;4.35;;;3.92;;
19179;SDS011;9722;48.754;8.868;2023-08-21T12:17:17;4.90;;;4.30;;
19179;SDS011;9722;48.754;8.868;2023-08-21T12:20:37;4.82;;;4.20;;
19179;SDS011;9722;48.754;8.868;2023-08-21T12:23:58;4.25;;;3.88;;
19179;SDS011;9722;48.754;8.868;2023-08-21T12:27:19;4.75;;;4.40;;
19179;SDS011;9722;48.754;8.868;2023-08-21T12:30:42;4.20;;;3.88;;
19179;SDS011;9722;48.754;8.868;2023-08-21T12:34:02;5.55;;;4.03;;
19179;SDS011;9722;48.754;8.868;2023-08-21T12:37:23;5.30;;;4.22;;
19179;SDS011;9722;48.754;8.868;2023-08-21T12:40:45;5.15;;;3.50;;
19179;SDS011;9722;48.754;8.868;2023-08-21T12:44:05;6.28;;;4.50;;
19179;SDS011;9722;48.754;8.868;2023-08-21T12:47:28;4.80;;;4.40;;
19179;SDS011;9722;48.754;8.868;2023-08-21T12:50:49;4.78;;;4.32;;
19179;SDS011;9722;48.754;8.868;2023-08-21T12:54:10;5.35;;;4.28;;
19179;SDS011;9722;48.754;8.868;2023-08-21T12:57:30;4.30;;;4.03;;
19179;SDS011;9722;48.754;8.868;2023-08-21T13:00:51;4.60;;;4.20;;
19179;SDS011;9722;48.754;8.868;2023-08-21T13:04:11;5.28;;;4.88;;
19179;SDS011;9722;48.754;8.868;2023-08-21T13:07:32;6.28;;;4.63;;
19179;SDS011;9722;48.754;8.868;2023-08-21T13:10:52;4.63;;;4.28;;
19179;SDS011;9722;48.754;8.868;2023-08-21T13:14:13;6.82;;;4.25;;
19179;SDS011;9722;48.754;8.868;2023-08-21T13:17:34;4.75;;;4.40;;
19179;SDS011;9722;48.754;8.868;2023-08-21T13:20:54;4.78;;;4.47;;
19179;SDS011;9722;48.754;8.868;2023-08-21T13:24:15;4.70;;;4.30;;
19179;SDS011;9722;48.754;8.868;2023-08-21T13:27:35;4.50;;;4.20;;
19179;SDS011;9722;48.754;8.868;2023-08-21T13:30:56;4.97;;;4.50;;
19179;SDS011;9722;48.754;8.868;2023-08-21T13:34:16;6.10;;;4.40;;
19179;SDS011;9722;48.754;8.868;2023-08-21T13:37:37;5.18;;;4.82;;
19179;SDS011;9722;48.754;8.868;2023-08-21T13:40:58;5.07;;;4.68;;
19179;SDS011;9722;48.754;8.868;2023-08-21T13:44:19;5.00;;;4.50;;
19179;SDS011;9722;48.754;8.868;2023-08-21T13:47:40;4.50;;;4.18;;
19179;SDS011;9722;48.754;8.868;2023-08-21T13:51:02;6.60;;;4.55;;
19179;SDS011;9722;48.754;8.868;2023-08-21T13:54:22;5.10;;;4.68;;
19179;SDS011;9722;48.754;8.868;2023-08-21T13:57:43;4.88;;;4.47;;
19179;SDS011;9722;48.754;8.868;2023-08-21T14:01:03;4.35;;;4.07;;
19179;SDS011;9722;48.754;8.868;2023-08-21T14:04:24;5.65;;;4.60;;
19179;SDS011;9722;48.754;8.868;2023-08-21T14:07:44;4.90;;;4.53;;
19179;SDS011;9722;48.754;8.868;2023-08-21T14:11:05;5.45;;;4.55;;
19179;SDS011;9722;48.754;8.868;2023-08-21T14:14:26;4.95;;;4.55;;
19179;SDS011;9722;48.754;8.868;2023-08-21T14:17:46;4.75;;;4.25;;
19179;SDS011;9722;48.754;8.868;2023-08-21T14:21:09;4.47;;;4.13;;
19179;SDS011;9722;48.754;8.868;2023-08-21T14:24:29;4.55;;;4.30;;
19179;SDS011;9722;48.754;8.868;2023-08-21T14:27:50;4.73;;;4.37;;
19179;SDS011;9722;48.754;8.868;2023-08-21T14:31:11;4.70;;;4.30;;
19179;SDS011;9722;48.754;8.868;2023-08-21T14:34:31;5.87;;;4.83;;
19179;SDS011;9722;48.754;8.868;2023-08-21T14:37:52;10.27;;;4.73;;
19179;SDS011;9722;48.754;8.868;2023-08-21T14:41:12;5.60;;;5.07;;
19179;SDS011;9722;48.754;8.868;2023-08-21T14:44:33;4.77;;;4.47;;
19179;SDS011;9722;48.754;8.868;2023-08-21T14:47:53;5.07;;;4.67;;
19179;SDS011;9722;48.754;8.868;2023-08-21T14:51:14;5.40;;;4.90;;
19179;SDS011;9722;48.754;8.868;2023-08-21T14:54:34;5.43;;;4.97;;
19179;SDS011;9722;48.754;8.868;2023-08-21T14:57:55;6.37;;;4.23;;
19179;SDS011;9722;48.754;8.868;2023-08-21T15:01:16;5.67;;;4.30;;
19179;SDS011;9722;48.754;8.868;2023-08-21T15:04:36;5.20;;;4.70;;
19179;SDS011;9722;48.754;8.868;2023-08-21T15:07:57;5.50;;;4.73;;
19179;SDS011;9722;48.754;8.868;2023-08-21T15:11:19;7.00;;;4.97;;
19179;SDS011;9722;48.754;8.868;2023-08-21T15:14:40;4.87;;;4.47;;
19179;SDS011;9722;48.754;8.868;2023-08-21T15:18:00;4.33;;;4.03;;
19179;SDS011;9722;48.754;8.868;2023-08-21T15:21:21;5.23;;;4.73;;
19179;SDS011;9722;48.754;8.868;2023-08-21T15:24:41;5.00;;;4.57;;
19179;SDS011;9722;48.754;8.868;2023-08-21T15:28:02;5.03;;;4.63;;
19179;SDS011;9722;48.754;8.868;2023-08-21T15:31:23;4.87;;;4.57;;
19179;SDS011;9722;48.754;8.868;2023-08-21T15:34:43;4.57;;;4.17;;
19179;SDS011;9722;48.754;8.868;2023-08-21T15:38:03;5.27;;;4.77;;
19179;SDS011;9722;48.754;8.868;2023-08-21T15:41:24;5.00;;;4.63;;
19179;SDS011;9722;48.754;8.868;2023-08-21T15:44:44;5.30;;;4.90;;
19179;SDS011;9722;48.754;8.868;2023-08-21T15:48:05;5.07;;;4.60;;
19179;SDS011;9722;48.754;8.868;2023-08-21T15:51:26;4.77;;;4.47;;
19179;SDS011;9722;48.754;8.868;2023-08-21T15:54:46;4.90;;;4.50;;
19179;SDS011;9722;48.754;8.868;2023-08-21T15:58:10;4.97;;;4.57;;
19179;SDS011;9722;48.754;8.868;2023-08-21T16:01:31;5.33;;;4.90;;
19179;SDS011;9722;48.754;8.868;2023-08-21T16:04:51;5.00;;;4.63;;
19179;SDS011;9722;48.754;8.868;2023-08-21T16:08:12;5.20;;;4.80;;
19179;SDS011;9722;48.754;8.868;2023-08-21T16:11:32;4.80;;;4.50;;
19179;SDS011;9722;48.754;8.868;2023-08-21T16:14:53;5.23;;;4.77;;
19179;SDS011;9722;48.754;8.868;2023-08-21T16:18:13;4.73;;;4.43;;
19179;SDS011;9722;48.754;8.868;2023-08-21T16:21:35;5.63;;;5.07;;
19179;SDS011;9722;48.754;8.868;2023-08-21T16:24:56;8.80;;;4.50;;
19179;SDS011;9722;48.754;8.868;2023-08-21T16:28:17;5.00;;;4.50;;
19179;SDS011;9722;48.754;8.868;2023-08-21T16:31:37;4.70;;;4.30;;
19179;SDS011;9722;48.754;8.868;2023-08-21T16:34:57;5.30;;;4.70;;
19179;SDS011;9722;48.754;8.868;2023-08-21T16:38:18;4.40;;;4.00;;
19179;SDS011;9722;48.754;8.868;2023-08-21T16:41:39;4.33;;;3.93;;
19179;SDS011;9722;48.754;8.868;2023-08-21T16:44:59;4.50;;;4.10;;
19179;SDS011;9722;48.754;8.868;2023-08-21T16:48:20;4.77;;;4.07;;
19179;SDS011;9722;48.754;8.868;2023-08-21T16:51:41;6.37;;;4.23;;
19179;SDS011;9722;48.754;8.868;2023-08-21T16:55:01;4.40;;;4.00;;
19179;SDS011;9722;48.754;8.868;2023-08-21T16:58:23;4.00;;;3.70;;
19179;SDS011;9722;48.754;8.868;2023-08-21T17:01:44;6.90;;;3.90;;
19179;SDS011;9722;48.754;8.868;2023-08-21T17:05:04;5.00;;;3.83;;
19179;SDS011;9722;48.754;8.868;2023-08-21T17:08:25;4.00;;;3.70;;
19179;SDS011;9722;48.754;8.868;2023-08-21T17:11:45;4.40;;;4.10;;
19179;SDS011;9722;48.754;8.868;2023-08-21T17:15:06;5.10;;;4.13;;
19179;SDS011;9722;48.754;8.868;2023-08-21T17:18:27;4.30;;;3.90;;
19179;SDS011;9722;48.754;8.868;2023-08-21T17:21:48;4.90;;;4.50;;
19179;SDS011;9722;48.754;8.868;2023-08-21T17:25:08;5.03;;;3.93;;
19179;SDS011;9722;48.754;8.868;2023-08-21T17:28:29;6.77;;;4.10;;
19179;SDS011;9722;48.754;8.868;2023-08-21T17:31:49;4.70;;;4.00;;
19179;SDS011;9722;48.754;8.868;2023-08-21T17:35:11;6.55;;;4.50;;
19179;SDS011;9722;48.754;8.868;2023-08-21T17:38:32;5.57;;;4.47;;
19179;SDS011;9722;48.754;8.868;2023-08-21T17:41:52;4.30;;;3.90;;
19179;SDS011;9722;48.754;8.868;2023-08-21T17:45:13;4.97;;;4.47;;
19179;SDS011;9722;48.754;8.868;2023-08-21T17:48:33;4.60;;;4.20;;
19179;SDS011;9722;48.754;8.868;2023-08-21T17:51:54;4.77;;;4.37;;
19179;SDS011;9722;48.754;8.868;2023-08-21T17:55:14;4.53;;;4.10;;
19179;SDS011;9722;48.754;8.868;2023-08-21T17:58:35;5.60;;;4.27;;
19179;SDS011;9722;48.754;8.868;2023-08-21T18:01:57;5.63;;;4.93;;
19179;SDS011;9722;48.754;8.868;2023-08-21T18:05:18;6.37;;;4.60;;
19179;SDS011;9722;48.754;8.868;2023-08-21T18:08:39;5.27;;;4.77;;
19179;SDS011;9722;48.754;8.868;2023-08-21T18:12:00;5.20;;;4.67;;
19179;SDS011;9722;48.754;8.868;2023-08-21T18:15:20;6.97;;;5.77;;
19179;SDS011;9722;48.754;8.868;2023-08-21T18:18:40;12.87;;;5.20;;
19179;SDS011;9722;48.754;8.868;2023-08-21T18:22:02;5.23;;;4.70;;
19179;SDS011;9722;48.754;8.868;2023-08-21T18:25:23;6.73;;;5.23;;
19179;SDS011;9722;48.754;8.868;2023-08-21T18:28:43;5.23;;;4.67;;
19179;SDS011;9722;48.754;8.868;2023-08-21T18:32:04;7.30;;;4.87;;
19179;SDS011;9722;48.754;8.868;2023-08-21T18:35:24;7.83;;;4.93;;
19179;SDS011;9722;48.754;8.868;2023-08-21T18:38:45;5.37;;;4.87;;
19179;SDS011;9722;48.754;8.868;2023-08-21T18:42:05;5.17;;;4.43;;
19179;SDS011;9722;48.754;8.868;2023-08-21T18:45:26;5.70;;;4.97;;
19179;SDS011;9722;48.754;8.868;2023-08-21T18:48:47;7.90;;;5.70;;
19179;SDS011;9722;48.754;8.868;2023-08-21T18:52:07;7.67;;;6.40;;
19179;SDS011;9722;48.754;8.868;2023-08-21T18:55:28;6.40;;;5.90;;
19179;SDS011;9722;48.754;8.868;2023-08-21T18:58:49;6.70;;;5.87;;
19179;SDS011;9722;48.754;8.868;2023-08-21T19:02:09;9.20;;;5.60;;
19179;SDS011;9722;48.754;8.868;2023-08-21T19:05:30;8.77;;;5.20;;
19179;SDS011;9722;48.754;8.868;2023-08-21T19:08:50;8.00;;;5.10;;
19179;SDS011;9722;48.754;8.868;2023-08-21T19:12:11;6.60;;;5.60;;
19179;SDS011;9722;48.754;8.868;2023-08-21T19:15:31;7.53;;;5.63;;
19179;SDS011;9722;48.754;8.868;2023-08-21T19:18:53;6.70;;;5.67;;
19179;SDS011;9722;48.754;8.868;2023-08-21T19:22:13;5.87;;;5.37;;
19179;SDS011;9722;48.754;8.868;2023-08-21T19:25:34;8.57;;;6.13;;
19179;SDS011;9722;48.754;8.868;2023-08-21T19:28:54;6.37;;;5.83;;
19179;SDS011;9722;48.754;8.868;2023-08-21T19:32:15;6.27;;;5.83;;
19179;SDS011;9722;48.754;8.868;2023-08-21T19:35:35;5.93;;;5.40;;
19179;SDS011;9722;48.754;8.868;2023-08-21T19:38:56;7.23;;;5.87;;
19179;SDS011;9722;48.754;8.868;2023-08-21T19:42:16;6.40;;;5.80;;
19179;SDS011;9722;48.754;8.868;2023-08-21T19:45:37;5.43;;;5.03;;
19179;SDS011;9722;48.754;8.868;2023-08-21T19:48:59;6.23;;;5.63;;
19179;SDS011;9722;48.754;8.868;2023-08-21T19:52:19;6.57;;;5.97;;
19179;SDS011;9722;48.754;8.868;2023-08-21T19:55:40;6.20;;;5.70;;
19179;SDS011;9722;48.754;8.868;2023-08-21T19:59:00;6.37;;;5.87;;
19179;SDS011;9722;48.754;8.868;2023-08-21T20:02:22;6.43;;;5.97;;
19179;SDS011;9722;48.754;8.868;2023-08-21T20:05:42;6.20;;;5.70;;
19179;SDS011;9722;48.754;8.868;2023-08-21T20:09:03;6.43;;;5.23;;
19179;SDS011;9722;48.754;8.868;2023-08-21T20:12:25;6.57;;;6.00;;
19179;SDS011;9722;48.754;8.868;2023-08-21T20:15:45;7.13;;;5.70;;
19179;SDS011;9722;48.754;8.868;2023-08-21T20:19:06;7.70;;;5.60;;
19179;SDS011;9722;48.754;8.868;2023-08-21T20:22:26;7.20;;;6.03;;
19179;SDS011;9722;48.754;8.868;2023-08-21T20:25:48;7.27;;;5.97;;
19179;SDS011;9722;48.754;8.868;2023-08-21T20:29:08;5.70;;;5.30;;
19179;SDS011;9722;48.754;8.868;2023-08-21T20:32:31;8.87;;;6.07;;
19179;SDS011;9722;48.754;8.868;2023-08-21T20:35:51;6.53;;;5.90;;
19179;SDS011;9722;48.754;8.868;2023-08-21T20:39:12;7.27;;;5.93;;
19179;SDS011;9722;48.754;8.868;2023-08-21T20:42:32;8.83;;;5.80;;
19179;SDS011;9722;48.754;8.868;2023-08-21T20:45:53;9.17;;;5.97;;
19179;SDS011;9722;48.754;8.868;2023-08-21T20:49:13;6.27;;;5.70;;
19179;SDS011;9722;48.754;8.868;2023-08-21T20:52:34;8.53;;;6.60;;
19179;SDS011;9722;48.754;8.868;2023-08-21T20:55:56;7.20;;;6.13;;
19179;SDS011;9722;48.754;8.868;2023-08-21T20:59:17;6.57;;;6.17;;
19179;SDS011;9722;48.754;8.868;2023-08-21T21:02:37;8.10;;;5.93;;
19179;SDS011;9722;48.754;8.868;2023-08-21T21:05:58;6.37;;;5.77;;
19179;SDS011;9722;48.754;8.868;2023-08-21T21:09:18;7.30;;;5.57;;
19179;SDS011;9722;48.754;8.868;2023-08-21T21:12:39;5.97;;;5.40;;
19179;SDS011;9722;48.754;8.868;2023-08-21T21:15:59;6.33;;;5.93;;
19179;SDS011;9722;48.754;8.868;2023-08-21T21:19:20;6.27;;;5.87;;
19179;SDS011;9722;48.754;8.868;2023-08-21T21:22:40;6.20;;;5.73;;
19179;SDS011;9722;48.754;8.868;2023-08-21T21:26:01;6.23;;;5.73;;
19179;SDS011;9722;48.754;8.868;2023-08-21T21:29:22;7.57;;;6.03;;
19179;SDS011;9722;48.754;8.868;2023-08-21T21:32:43;6.37;;;5.77;;
19179;SDS011;9722;48.754;8.868;2023-08-21T21:36:04;6.70;;;6.00;;
19179;SDS011;9722;48.754;8.868;2023-08-21T21:39:25;6.20;;;5.70;;
19179;SDS011;9722;48.754;8.868;2023-08-21T21:42:45;6.20;;;5.60;;
19179;SDS011;9722;48.754;8.868;2023-08-21T21:46:08;6.90;;;6.40;;
19179;SDS011;9722;48.754;8.868;2023-08-21T21:49:29;6.37;;;5.80;;
19179;SDS011;9722;48.754;8.868;2023-08-21T21:52:49;6.10;;;5.50;;